createdAt,value
2023-04-02T00:00:13.839Z,100.00
2023-04-02T00:02:51.442Z,100.00
2023-04-02T00:05:34.862Z,100.00
2023-04-02T00:08:10.424Z,100.00
2023-04-02T00:10:57.832Z,100.00
2023-04-02T00:13:33.402Z,100.00
2023-04-02T00:16:05.561Z,100.00
2023-04-02T00:18:37.309Z,100.00
2023-04-02T00:21:24.222Z,100.00
2023-04-02T00:23:56.030Z,100.00
2023-04-02T00:26:33.666Z,100.00
2023-04-02T00:29:04.977Z,100.00
2023-04-02T00:31:35.025Z,100.00
2023-04-02T00:34:12.251Z,100.00
2023-04-02T00:36:43.711Z,100.00
2023-04-02T00:39:16.245Z,100.00
2023-04-02T00:41:46.583Z,100.00
2023-04-02T00:44:22.219Z,100.00
2023-04-02T00:46:52.889Z,100.00
2023-04-02T00:49:25.769Z,100.00
2023-04-02T00:52:00.410Z,100.00
2023-04-02T00:54:32.408Z,100.00
2023-04-02T00:57:02.810Z,100.00
2023-04-02T00:59:37.667Z,100.00
2023-04-02T01:02:19.195Z,100.00
2023-04-02T01:05:00.374Z,100.00
2023-04-02T01:07:42.351Z,100.00
2023-04-02T01:10:36.005Z,100.00
2023-04-02T01:13:27.640Z,100.00
2023-04-02T01:16:08.925Z,100.00
2023-04-02T01:18:58.185Z,100.00
2023-04-02T01:21:51.597Z,100.00
2023-04-02T01:24:22.227Z,100.00
2023-04-02T01:26:57.960Z,100.00
2023-04-02T01:29:44.998Z,100.00
2023-04-02T01:32:16.594Z,100.00
2023-04-02T01:34:47.647Z,100.00
2023-04-02T01:37:23.295Z,100.00
2023-04-02T01:40:17.724Z,100.00
2023-04-02T01:42:58.915Z,100.00
2023-04-02T01:45:29.819Z,100.00
2023-04-02T01:47:59.624Z,100.00
2023-04-02T01:50:32.489Z,100.00
2023-04-02T01:53:05.320Z,100.00
2023-04-02T01:55:41.238Z,100.00
2023-04-02T01:58:13.355Z,100.00
2023-04-02T02:00:56.168Z,100.00
2023-04-02T02:03:26.235Z,100.00
2023-04-02T02:05:56.320Z,100.00
2023-04-02T02:08:34.924Z,100.00
2023-04-02T02:11:05.827Z,100.00
2023-04-02T02:13:35.399Z,100.00
2023-04-02T02:16:06.057Z,100.00
2023-04-02T02:18:35.656Z,100.00
2023-04-02T02:21:06.619Z,100.00
2023-04-02T02:23:36.400Z,100.00
2023-04-02T02:26:07.118Z,100.00
2023-04-02T02:28:39.176Z,100.00
2023-04-02T02:31:13.041Z,100.00
2023-04-02T02:33:45.978Z,100.00
2023-04-02T02:36:26.138Z,100.00
2023-04-02T02:38:57.665Z,100.00
2023-04-02T02:41:46.139Z,100.00
2023-04-02T02:44:19.266Z,100.00
2023-04-02T02:47:02.698Z,100.00
2023-04-02T02:49:35.400Z,100.00
2023-04-02T02:52:11.456Z,100.00
2023-04-02T02:54:51.220Z,100.00
2023-04-02T02:57:23.967Z,100.00
2023-04-02T02:59:52.910Z,100.00
2023-04-02T03:02:22.313Z,100.00
2023-04-02T03:04:53.182Z,100.00
2023-04-02T03:07:26.542Z,100.00
2023-04-02T03:10:20.993Z,100.00
2023-04-02T03:12:59.387Z,100.00
2023-04-02T03:15:38.373Z,100.00
2023-04-02T03:18:29.407Z,100.00
2023-04-02T03:21:05.128Z,100.00
2023-04-02T03:23:37.267Z,100.00
2023-04-02T03:26:19.161Z,100.00
2023-04-02T03:28:52.378Z,100.00
2023-04-02T03:31:36.438Z,100.00
2023-04-02T03:34:21.259Z,100.00
2023-04-02T03:37:21.873Z,100.00
2023-04-02T03:39:56.738Z,100.00
2023-04-02T03:42:29.791Z,100.00
2023-04-02T03:45:09.982Z,100.00
2023-04-02T03:48:06.643Z,100.00
2023-04-02T03:50:48.703Z,100.00
2023-04-02T03:53:18.172Z,100.00
2023-04-02T03:55:48.111Z,100.00
2023-04-02T03:58:23.920Z,100.00
2023-04-02T04:01:03.102Z,100.00
2023-04-02T04:03:40.998Z,100.00
2023-04-02T04:06:27.960Z,100.00
2023-04-02T04:09:03.828Z,100.00
2023-04-02T04:11:35.932Z,100.00
2023-04-02T04:14:19.905Z,100.00
2023-04-02T04:17:01.946Z,100.00
2023-04-02T04:19:57.322Z,100.00
2023-04-02T04:22:32.874Z,100.00
2023-04-02T04:25:25.431Z,100.00
2023-04-02T04:27:56.745Z,100.00
2023-04-02T04:30:29.128Z,100.00
2023-04-02T04:33:05.709Z,100.00
2023-04-02T04:35:40.609Z,100.00
2023-04-02T04:38:15.633Z,100.00
2023-04-02T04:40:52.145Z,100.00
2023-04-02T04:43:42.860Z,100.00
2023-04-02T04:46:15.377Z,100.00
2023-04-02T04:49:09.004Z,100.00
2023-04-02T04:51:42.045Z,100.00
2023-04-02T04:54:14.202Z,100.00
2023-04-02T04:56:52.667Z,100.00
2023-04-02T04:59:25.803Z,100.00
2023-04-02T05:02:02.998Z,100.00
2023-04-02T05:04:43.796Z,100.00
2023-04-02T05:07:23.571Z,100.00
2023-04-02T05:09:56.722Z,100.00
2023-04-02T05:12:35.335Z,100.00
2023-04-02T05:15:09.314Z,100.00
2023-04-02T05:17:49.048Z,100.00
2023-04-02T05:20:30.729Z,100.00
2023-04-02T05:23:13.300Z,100.00
2023-04-02T05:26:12.064Z,100.00
2023-04-02T05:28:53.009Z,100.00
2023-04-02T05:31:29.186Z,100.00
2023-04-02T05:33:59.549Z,100.00
2023-04-02T05:36:30.568Z,100.00
2023-04-02T05:39:01.518Z,100.00
2023-04-02T05:41:45.426Z,100.00
2023-04-02T05:44:28.125Z,100.00
2023-04-02T05:46:59.267Z,100.00
2023-04-02T05:49:39.235Z,99.81
2023-04-02T05:52:15.754Z,99.82
2023-04-02T05:55:08.072Z,98.93
2023-04-02T05:57:45.856Z,99.19
2023-04-02T06:00:17.543Z,99.12
2023-04-02T06:03:00.365Z,99.61
2023-04-02T06:05:33.201Z,99.16
2023-04-02T06:08:12.024Z,98.88
2023-04-02T06:10:56.421Z,99.88
2023-04-02T06:13:28.870Z,98.72
2023-04-02T06:15:58.708Z,98.93
2023-04-02T06:18:31.701Z,99.14
2023-04-02T06:21:01.868Z,99.15
2023-04-02T06:23:42.790Z,98.67
2023-04-02T06:26:31.382Z,97.89
2023-04-02T06:29:18.510Z,98.26
2023-04-02T06:31:58.232Z,97.22
2023-04-02T06:34:30.213Z,97.55
2023-04-02T06:37:22.135Z,96.92
2023-04-02T06:39:53.379Z,96.84
2023-04-02T06:42:28.330Z,97.07
2023-04-02T06:45:06.518Z,95.95
2023-04-02T06:47:46.971Z,95.66
2023-04-02T06:50:24.234Z,95.45
2023-04-02T06:52:56.162Z,94.75
2023-04-02T06:55:43.408Z,94.01
2023-04-02T06:58:12.931Z,94.90
2023-04-02T07:00:44.434Z,94.23
2023-04-02T07:03:27.551Z,95.02
2023-04-02T07:05:59.629Z,93.83
2023-04-02T07:08:28.997Z,93.88
2023-04-02T07:10:58.679Z,93.03
2023-04-02T07:13:28.435Z,93.14
2023-04-02T07:15:58.529Z,92.67
2023-04-02T07:18:34.070Z,91.68
2023-04-02T07:21:05.182Z,92.25
2023-04-02T07:23:34.879Z,92.17
2023-04-02T07:26:04.905Z,92.71
2023-04-02T07:28:35.013Z,93.46
2023-04-02T07:31:04.318Z,91.84
2023-04-02T07:33:33.638Z,91.95
2023-04-02T07:36:03.278Z,90.63
2023-04-02T07:38:32.580Z,90.87
2023-04-02T07:41:06.834Z,90.72
2023-04-02T07:43:36.422Z,91.45
2023-04-02T07:46:06.754Z,90.05
2023-04-02T07:48:36.552Z,91.08
2023-04-02T07:51:07.108Z,90.70
2023-04-02T07:53:38.664Z,91.91
2023-04-02T07:56:09.288Z,90.97
2023-04-02T07:58:38.699Z,91.04
2023-04-02T08:01:11.356Z,90.18
2023-04-02T08:03:41.505Z,89.75
2023-04-02T08:06:11.846Z,89.48
2023-04-02T08:08:41.275Z,88.77
2023-04-02T08:11:10.924Z,89.12
2023-04-02T08:13:40.871Z,88.41
2023-04-02T08:16:10.770Z,89.01
2023-04-02T08:18:40.559Z,89.32
2023-04-02T08:21:11.316Z,89.42
2023-04-02T08:23:40.690Z,88.51
2023-04-02T08:26:10.038Z,87.72
2023-04-02T08:28:39.301Z,88.53
2023-04-02T08:31:09.309Z,88.25
2023-04-02T08:33:38.678Z,88.78
2023-04-02T08:36:08.552Z,88.78
2023-04-02T08:38:37.842Z,88.42
2023-04-02T08:41:07.192Z,87.49
2023-04-02T08:43:42.130Z,87.92
2023-04-02T08:46:23.956Z,88.10
2023-04-02T08:48:56.963Z,87.53
2023-04-02T08:51:29.561Z,88.96
2023-04-02T08:53:59.730Z,88.01
2023-04-02T08:56:32.346Z,87.97
2023-04-02T08:59:04.123Z,88.42
2023-04-02T09:01:49.118Z,87.17
2023-04-02T09:04:21.906Z,85.90
2023-04-02T09:06:53.481Z,85.45
2023-04-02T09:09:23.980Z,85.74
2023-04-02T09:12:03.050Z,87.18
2023-04-02T09:14:43.883Z,84.60
2023-04-02T09:17:19.179Z,86.67
2023-04-02T09:20:08.407Z,86.15
2023-04-02T09:22:38.399Z,86.25
2023-04-02T09:25:11.459Z,86.11
2023-04-02T09:27:40.701Z,85.96
2023-04-02T09:30:34.071Z,86.06
2023-04-02T09:33:06.597Z,85.09
2023-04-02T09:35:36.057Z,85.90
2023-04-02T09:38:24.003Z,84.96
2023-04-02T09:40:57.075Z,85.86
2023-04-02T09:43:29.537Z,85.69
2023-04-02T09:46:08.358Z,87.11
2023-04-02T09:48:43.936Z,86.27
2023-04-02T09:51:21.918Z,86.98
2023-04-02T09:53:55.797Z,86.84
2023-04-02T09:56:26.523Z,86.37
2023-04-02T09:59:17.092Z,85.36
2023-04-02T10:01:58.183Z,86.59
2023-04-02T10:04:44.632Z,86.87
2023-04-02T10:07:45.953Z,87.81
2023-04-02T10:10:27.786Z,85.69
2023-04-02T10:13:00.347Z,85.88
2023-04-02T10:15:30.728Z,85.46
2023-04-02T10:18:12.088Z,85.38
2023-04-02T10:20:51.035Z,86.25
2023-04-02T10:23:18.101Z,86.92
2023-04-02T10:25:57.521Z,87.23
2023-04-02T10:28:45.263Z,84.60
2023-04-02T10:31:26.146Z,85.37
2023-04-02T10:33:58.623Z,86.58
2023-04-02T10:36:40.174Z,85.99
2023-04-02T10:39:31.366Z,86.88
2023-04-02T10:42:03.883Z,86.89
2023-04-02T10:44:40.092Z,86.06
2023-04-02T10:47:25.716Z,84.86
2023-04-02T10:50:29.738Z,85.75
2023-04-02T10:53:14.249Z,87.35
2023-04-02T10:55:52.542Z,85.73
2023-04-02T10:58:24.757Z,86.23
2023-04-02T11:01:02.718Z,85.92
2023-04-02T11:03:35.222Z,85.87
2023-04-02T11:06:09.699Z,85.81
2023-04-02T11:08:48.353Z,86.11
2023-04-02T11:11:23.798Z,85.40
2023-04-02T11:14:26.149Z,84.65
2023-04-02T11:16:58.093Z,86.26
2023-04-02T11:19:30.603Z,84.28
2023-04-02T11:22:01.465Z,83.76
2023-04-02T11:24:44.794Z,82.62
2023-04-02T11:27:29.100Z,81.26
2023-04-02T11:30:04.387Z,82.03
2023-04-02T11:32:39.713Z,81.89
2023-04-02T11:35:33.852Z,80.99
2023-04-02T11:38:06.783Z,81.45
2023-04-02T11:41:01.510Z,80.79
2023-04-02T11:43:41.393Z,83.56
2023-04-02T11:46:33.442Z,76.45
2023-04-02T11:49:22.441Z,69.73
2023-04-02T11:51:59.219Z,65.02
2023-04-02T11:54:24.824Z,63.43
2023-04-02T11:56:57.328Z,64.29
2023-04-02T11:59:30.560Z,61.27
2023-04-02T12:02:03.418Z,60.87
2023-04-02T12:04:44.754Z,62.63
2023-04-02T12:07:17.927Z,62.80
2023-04-02T12:09:56.132Z,61.95
2023-04-02T12:12:28.039Z,66.96
2023-04-02T12:14:59.129Z,63.49
2023-04-02T12:17:39.361Z,66.41
2023-04-02T12:20:13.694Z,69.20
2023-04-02T12:22:48.254Z,65.45
2023-04-02T12:25:23.304Z,65.20
2023-04-02T12:28:14.454Z,66.08
2023-04-02T12:30:43.918Z,62.11
2023-04-02T12:33:25.138Z,64.64
2023-04-02T12:35:57.794Z,63.21
2023-04-02T12:38:32.320Z,58.17
2023-04-02T12:41:04.831Z,57.50
2023-04-02T12:43:37.864Z,56.29
2023-04-02T12:46:08.566Z,56.72
2023-04-02T12:48:38.460Z,58.77
2023-04-02T12:51:07.928Z,55.22
2023-04-02T12:53:39.900Z,57.29
2023-04-02T12:56:09.636Z,52.97
2023-04-02T12:58:42.745Z,57.83
2023-04-02T13:01:14.659Z,55.62
2023-04-02T13:03:44.126Z,53.34
2023-04-02T13:06:17.274Z,55.60
2023-04-02T13:08:46.903Z,55.28
2023-04-02T13:11:16.332Z,54.96
2023-04-02T13:13:46.993Z,53.30
2023-04-02T13:16:19.644Z,54.49
2023-04-02T13:18:50.248Z,54.56
2023-04-02T13:21:28.117Z,56.14
2023-04-02T13:23:57.528Z,52.83
2023-04-02T13:26:28.964Z,52.63
2023-04-02T13:29:07.445Z,51.43
2023-04-02T13:31:37.074Z,51.66
2023-04-02T13:34:06.513Z,50.95
2023-04-02T13:36:37.216Z,52.09
2023-04-02T13:39:06.836Z,51.72
2023-04-02T13:41:39.272Z,52.63
2023-04-02T13:44:10.660Z,53.14
2023-04-02T13:46:39.920Z,50.36
2023-04-02T13:49:11.715Z,49.51
2023-04-02T13:51:44.573Z,51.56
2023-04-02T13:54:17.246Z,49.47
2023-04-02T13:56:46.699Z,50.87
2023-04-02T13:59:16.519Z,53.88
2023-04-02T14:01:47.674Z,48.03
2023-04-02T14:04:22.932Z,48.57
2023-04-02T14:07:13.638Z,50.52
2023-04-02T14:10:03.885Z,51.37
2023-04-02T14:13:01.746Z,50.51
2023-04-02T14:15:57.787Z,49.29
2023-04-02T14:18:33.109Z,47.65
2023-04-02T14:21:05.606Z,50.31
2023-04-02T14:23:44.148Z,51.68
2023-04-02T14:26:19.272Z,52.10
2023-04-02T14:28:53.519Z,52.46
2023-04-02T14:31:35.047Z,52.29
2023-04-02T14:34:16.324Z,50.05
2023-04-02T14:36:55.940Z,52.54
2023-04-02T14:39:43.327Z,52.33
2023-04-02T14:42:17.171Z,51.39
2023-04-02T14:44:53.033Z,53.34
2023-04-02T14:47:25.786Z,49.83
2023-04-02T14:49:58.175Z,50.43
2023-04-02T14:52:29.589Z,51.41
2023-04-02T14:55:05.300Z,51.99
2023-04-02T14:57:37.003Z,51.79
2023-04-02T15:00:28.035Z,48.55
2023-04-02T15:03:11.681Z,51.65
2023-04-02T15:05:48.968Z,50.91
2023-04-02T15:08:29.808Z,49.61
2023-04-02T15:11:08.551Z,49.78
2023-04-02T15:13:43.976Z,48.46
2023-04-02T15:16:20.681Z,49.33
2023-04-02T15:19:00.826Z,50.52
2023-04-02T15:21:55.616Z,49.02
2023-04-02T15:24:19.065Z,48.01
2023-04-02T15:27:27.332Z,48.50
2023-04-02T15:30:17.691Z,44.53
2023-04-02T15:32:48.944Z,47.40
2023-04-02T15:35:31.527Z,46.17
2023-04-02T15:38:22.698Z,46.86
2023-04-02T15:41:01.286Z,47.55
2023-04-02T15:43:39.231Z,47.07
2023-04-02T15:46:23.164Z,47.10
2023-04-02T15:49:14.024Z,47.58
2023-04-02T15:52:02.758Z,48.24
2023-04-02T15:54:54.840Z,47.13
2023-04-02T15:57:43.652Z,47.51
2023-04-02T16:00:31.159Z,49.53
2023-04-02T16:03:20.995Z,48.67
2023-04-02T16:06:02.076Z,49.22
2023-04-02T16:08:46.892Z,48.72
2023-04-02T16:11:16.773Z,49.66
2023-04-02T16:13:47.431Z,50.17
2023-04-02T16:16:35.078Z,49.46
2023-04-02T16:19:20.833Z,52.27
2023-04-02T16:21:56.684Z,52.04
2023-04-02T16:24:26.412Z,49.87
2023-04-02T16:26:58.477Z,51.09
2023-04-02T16:29:54.332Z,50.58
2023-04-02T16:32:28.140Z,51.45
2023-04-02T16:35:41.031Z,53.27
2023-04-02T16:38:07.161Z,51.55
2023-04-02T16:41:00.570Z,53.46
2023-04-02T16:43:37.844Z,52.40
2023-04-02T16:49:03.548Z,55.51
2023-04-02T16:51:47.840Z,55.01
2023-04-02T16:54:26.315Z,57.23
2023-04-02T16:57:18.319Z,57.65
2023-04-02T16:59:53.605Z,58.24
2023-04-02T17:02:46.115Z,57.53
2023-04-02T17:05:37.008Z,59.53
2023-04-02T17:08:23.927Z,60.06
2023-04-02T17:11:02.374Z,60.26
2023-04-02T17:13:43.157Z,60.03
2023-04-02T17:16:21.848Z,61.10
2023-04-02T17:18:53.467Z,60.00
2023-04-02T17:21:26.428Z,61.38
2023-04-02T17:23:59.132Z,60.14
2023-04-02T17:26:30.516Z,60.64
2023-04-02T17:29:02.705Z,60.94
2023-04-02T17:31:35.187Z,60.64
2023-04-02T17:34:11.264Z,61.83
2023-04-02T17:36:49.369Z,61.91
2023-04-02T17:39:38.657Z,62.29
2023-04-02T17:42:23.134Z,61.85
2023-04-02T17:44:56.121Z,63.97
2023-04-02T17:47:31.359Z,63.79
2023-04-02T17:50:20.165Z,64.34
2023-04-02T17:53:09.918Z,64.79
2023-04-02T17:55:45.118Z,66.37
2023-04-02T17:58:17.803Z,67.53
2023-04-02T18:01:09.845Z,67.63
2023-04-02T18:03:49.387Z,67.20
2023-04-02T18:06:24.050Z,67.01
2023-04-02T18:09:16.370Z,69.41
2023-04-02T18:11:51.618Z,69.11
2023-04-02T18:14:46.785Z,68.81
2023-04-02T18:17:22.003Z,69.13
2023-04-02T18:19:54.514Z,68.83
2023-04-02T18:22:33.100Z,69.32
2023-04-02T18:25:27.454Z,69.84
2023-04-02T18:28:15.173Z,69.71
2023-04-02T18:31:04.304Z,70.79
2023-04-02T18:34:02.856Z,71.41
2023-04-02T18:36:47.509Z,70.50
2023-04-02T18:39:23.266Z,72.78
2023-04-02T18:41:58.668Z,71.81
2023-04-02T18:44:38.693Z,72.62
2023-04-02T18:47:17.330Z,74.61
2023-04-02T18:49:53.058Z,75.75
2023-04-02T18:52:23.326Z,74.10
2023-04-02T18:55:02.147Z,74.66
2023-04-02T18:57:34.120Z,76.80
2023-04-02T19:00:28.120Z,76.34
2023-04-02T19:03:09.827Z,76.33
2023-04-02T19:06:03.362Z,77.95
2023-04-02T19:08:39.254Z,76.95
2023-04-02T19:11:14.211Z,77.62
2023-04-02T19:13:45.090Z,77.12
2023-04-02T19:16:46.343Z,77.00
2023-04-02T19:19:28.018Z,81.51
2023-04-02T19:22:16.619Z,79.60
2023-04-02T19:25:04.617Z,79.05
2023-04-02T19:27:40.126Z,79.15
2023-04-02T19:30:28.765Z,80.81
2023-04-02T19:33:16.343Z,81.02
2023-04-02T19:36:01.230Z,82.09
2023-04-02T19:38:59.478Z,82.67
2023-04-02T19:41:48.445Z,81.84
2023-04-02T19:44:18.490Z,81.31
2023-04-02T19:46:48.694Z,81.30
2023-04-02T19:49:23.133Z,81.74
2023-04-02T19:51:53.681Z,82.54
2023-04-02T19:54:23.731Z,83.83
2023-04-02T19:56:53.046Z,84.98
2023-04-02T19:59:22.589Z,84.71
2023-04-02T20:01:52.120Z,84.96
2023-04-02T20:04:21.452Z,85.84
2023-04-02T20:06:51.843Z,84.55
2023-04-02T20:09:21.526Z,83.70
2023-04-02T20:11:50.889Z,83.86
2023-04-02T20:14:20.339Z,83.54
2023-04-02T20:16:49.775Z,83.88
2023-04-02T20:19:19.059Z,84.20
2023-04-02T20:21:48.401Z,84.50
2023-04-02T20:24:17.891Z,85.72
2023-04-02T20:26:47.172Z,83.87
2023-04-02T20:29:16.958Z,84.47
2023-04-02T20:31:46.293Z,85.53
2023-04-02T20:34:15.852Z,84.72
2023-04-02T20:36:45.994Z,84.33
2023-04-02T20:39:17.004Z,83.25
2023-04-02T20:41:48.221Z,84.10
2023-04-02T20:44:17.548Z,84.13
2023-04-02T20:46:47.031Z,85.75
2023-04-02T20:49:16.666Z,85.84
2023-04-02T20:51:47.826Z,86.20
2023-04-02T20:54:17.268Z,85.03
2023-04-02T20:56:46.580Z,86.54
2023-04-02T20:59:15.861Z,86.13
2023-04-02T21:01:46.132Z,86.91
2023-04-02T21:04:15.577Z,87.48
2023-04-02T21:06:45.261Z,86.93
2023-04-02T21:09:19.617Z,87.60
2023-04-02T21:11:48.949Z,88.25
2023-04-02T21:14:19.033Z,89.11
2023-04-02T21:16:48.347Z,88.78
2023-04-02T21:19:18.052Z,89.16
2023-04-02T21:21:47.778Z,89.34
2023-04-02T21:24:17.037Z,89.56
2023-04-02T21:26:46.486Z,90.98
2023-04-02T21:29:15.884Z,90.53
2023-04-02T21:31:45.628Z,90.62
2023-04-02T21:34:16.914Z,90.72
2023-04-02T21:36:48.223Z,91.10
2023-04-02T21:39:20.729Z,91.07
2023-04-02T21:41:53.374Z,91.03
2023-04-02T21:44:24.182Z,90.52
2023-04-02T21:46:54.630Z,91.02
2023-04-02T21:49:26.290Z,91.10
2023-04-02T21:51:56.136Z,90.61
2023-04-02T21:54:25.748Z,90.27
2023-04-02T21:56:55.506Z,90.51
2023-04-02T21:59:24.813Z,90.56
2023-04-02T22:01:54.545Z,90.51
2023-04-02T22:04:28.739Z,89.53
2023-04-02T22:06:58.309Z,88.82
2023-04-02T22:09:27.752Z,89.70
2023-04-02T22:12:02.299Z,90.33
2023-04-02T22:14:31.890Z,90.00
2023-04-02T22:17:01.855Z,89.59
2023-04-02T22:19:33.006Z,90.11
2023-04-02T22:22:02.668Z,89.63
2023-04-02T22:24:32.081Z,89.69
2023-04-02T22:27:01.612Z,90.02
2023-04-02T22:29:30.901Z,90.04
2023-04-02T22:32:00.491Z,89.68
2023-04-02T22:34:29.961Z,88.48
2023-04-02T22:37:00.050Z,88.40
2023-04-02T22:39:29.296Z,88.39
2023-04-02T22:41:59.310Z,87.90
2023-04-02T22:44:28.555Z,87.19
2023-04-02T22:46:57.991Z,87.82
2023-04-02T22:49:27.245Z,88.63
2023-04-02T22:51:56.851Z,88.15
2023-04-02T22:54:26.080Z,88.61
2023-04-02T22:56:55.680Z,88.51
2023-04-02T22:59:24.897Z,89.04
2023-04-02T23:01:54.266Z,88.73
2023-04-02T23:04:23.609Z,88.25
2023-04-02T23:06:52.975Z,88.74
2023-04-02T23:09:22.226Z,88.73
2023-04-02T23:11:51.776Z,88.38
2023-04-02T23:14:21.273Z,88.17
2023-04-02T23:16:50.675Z,88.16
2023-04-02T23:19:20.020Z,88.75
2023-04-02T23:21:49.671Z,88.33
2023-04-02T23:24:18.921Z,88.13
2023-04-02T23:26:48.235Z,88.62
2023-04-02T23:29:17.526Z,88.84
2023-04-02T23:31:47.369Z,89.01
2023-04-02T23:34:16.804Z,89.85
2023-04-02T23:36:46.566Z,89.12
2023-04-02T23:39:16.094Z,88.50
2023-04-02T23:41:45.692Z,89.10
2023-04-02T23:44:15.585Z,88.59
2023-04-02T23:46:44.891Z,87.65
2023-04-02T23:49:14.416Z,89.06
2023-04-02T23:51:43.708Z,90.19
2023-04-02T23:54:13.833Z,89.89
2023-04-02T23:56:43.612Z,89.36
2023-04-02T23:59:13.160Z,90.09
